sensor_id;sensor_type;location;lat;lon;timestamp;P1;durP1;ratioP1;P2;durP2;ratioP2
33152;SDS011;19509;43.862;26.176;2023-02-28T00:00:19;1.50;;;1.50;;
33152;SDS011;19509;43.862;26.176;2023-02-28T00:02:45;1.30;;;1.30;;
33152;SDS011;19509;43.862;26.176;2023-02-28T00:05:11;1.53;;;1.53;;
33152;SDS011;19509;43.862;26.176;2023-02-28T00:07:38;1.40;;;1.40;;
33152;SDS011;19509;43.862;26.176;2023-02-28T00:10:05;1.70;;;1.70;;
33152;SDS011;19509;43.862;26.176;2023-02-28T00:12:32;1.40;;;1.40;;
33152;SDS011;19509;43.862;26.176;2023-02-28T00:14:59;1.40;;;1.40;;
33152;SDS011;19509;43.862;26.176;2023-02-28T00:17:24;1.40;;;1.40;;
33152;SDS011;19509;43.862;26.176;2023-02-28T00:19:50;1.67;;;1.67;;
33152;SDS011;19509;43.862;26.176;2023-02-28T00:22:17;1.50;;;1.50;;
33152;SDS011;19509;43.862;26.176;2023-02-28T00:24:44;1.37;;;1.37;;
33152;SDS011;19509;43.862;26.176;2023-02-28T00:27:09;1.50;;;1.50;;
33152;SDS011;19509;43.862;26.176;2023-02-28T00:29:35;1.50;;;1.50;;
33152;SDS011;19509;43.862;26.176;2023-02-28T00:32:00;1.53;;;1.53;;
33152;SDS011;19509;43.862;26.176;2023-02-28T00:34:26;1.37;;;1.37;;
33152;SDS011;19509;43.862;26.176;2023-02-28T00:36:52;1.30;;;1.30;;
33152;SDS011;19509;43.862;26.176;2023-02-28T00:39:17;1.30;;;1.30;;
33152;SDS011;19509;43.862;26.176;2023-02-28T00:41:43;1.30;;;1.30;;
33152;SDS011;19509;43.862;26.176;2023-02-28T00:44:09;1.10;;;1.10;;
33152;SDS011;19509;43.862;26.176;2023-02-28T00:46:34;1.17;;;1.17;;
33152;SDS011;19509;43.862;26.176;2023-02-28T00:49:00;1.40;;;1.40;;
33152;SDS011;19509;43.862;26.176;2023-02-28T00:51:25;1.27;;;1.27;;
33152;SDS011;19509;43.862;26.176;2023-02-28T00:53:51;1.20;;;1.20;;
33152;SDS011;19509;43.862;26.176;2023-02-28T00:56:16;1.40;;;1.40;;
33152;SDS011;19509;43.862;26.176;2023-02-28T00:58:42;1.40;;;1.40;;
33152;SDS011;19509;43.862;26.176;2023-02-28T01:01:08;1.33;;;1.33;;
33152;SDS011;19509;43.862;26.176;2023-02-28T01:03:34;1.50;;;1.50;;
33152;SDS011;19509;43.862;26.176;2023-02-28T01:05:59;1.40;;;1.40;;
33152;SDS011;19509;43.862;26.176;2023-02-28T01:08:25;1.23;;;1.23;;
33152;SDS011;19509;43.862;26.176;2023-02-28T01:10:51;1.33;;;1.33;;
33152;SDS011;19509;43.862;26.176;2023-02-28T01:13:16;1.20;;;1.20;;
33152;SDS011;19509;43.862;26.176;2023-02-28T01:15:46;1.30;;;1.30;;
33152;SDS011;19509;43.862;26.176;2023-02-28T01:18:16;1.40;;;1.40;;
33152;SDS011;19509;43.862;26.176;2023-02-28T01:20:41;1.23;;;1.23;;
33152;SDS011;19509;43.862;26.176;2023-02-28T01:23:07;1.20;;;1.20;;
33152;SDS011;19509;43.862;26.176;2023-02-28T01:25:36;1.60;;;1.60;;
33152;SDS011;19509;43.862;26.176;2023-02-28T01:28:01;1.40;;;1.40;;
33152;SDS011;19509;43.862;26.176;2023-02-28T01:30:27;1.60;;;1.60;;
33152;SDS011;19509;43.862;26.176;2023-02-28T01:32:53;1.40;;;1.40;;
33152;SDS011;19509;43.862;26.176;2023-02-28T01:35:19;1.20;;;1.20;;
33152;SDS011;19509;43.862;26.176;2023-02-28T01:37:44;1.00;;;1.00;;
33152;SDS011;19509;43.862;26.176;2023-02-28T01:40:10;1.30;;;1.30;;
33152;SDS011;19509;43.862;26.176;2023-02-28T01:42:37;1.10;;;1.10;;
33152;SDS011;19509;43.862;26.176;2023-02-28T01:47:32;1.30;;;1.30;;
33152;SDS011;19509;43.862;26.176;2023-02-28T01:50:02;1.40;;;1.40;;
33152;SDS011;19509;43.862;26.176;2023-02-28T01:52:30;1.40;;;1.40;;
33152;SDS011;19509;43.862;26.176;2023-02-28T01:54:58;1.47;;;1.47;;
33152;SDS011;19509;43.862;26.176;2023-02-28T01:57:29;1.60;;;1.60;;
33152;SDS011;19509;43.862;26.176;2023-02-28T02:00:04;1.30;;;1.30;;
33152;SDS011;19509;43.862;26.176;2023-02-28T02:02:33;1.40;;;1.40;;
33152;SDS011;19509;43.862;26.176;2023-02-28T02:07:42;1.40;;;1.40;;
33152;SDS011;19509;43.862;26.176;2023-02-28T02:10:11;1.30;;;1.30;;
33152;SDS011;19509;43.862;26.176;2023-02-28T02:29:53;1.40;;;1.40;;
33152;SDS011;19509;43.862;26.176;2023-02-28T02:33:26;1.40;;;1.40;;
33152;SDS011;19509;43.862;26.176;2023-02-28T02:41:35;1.50;;;1.50;;
33152;SDS011;19509;43.862;26.176;2023-02-28T02:44:22;1.40;;;1.40;;
33152;SDS011;19509;43.862;26.176;2023-02-28T02:46:57;1.70;;;1.70;;
33152;SDS011;19509;43.862;26.176;2023-02-28T02:49:28;1.33;;;1.33;;
33152;SDS011;19509;43.862;26.176;2023-02-28T02:51:57;1.30;;;1.30;;
33152;SDS011;19509;43.862;26.176;2023-02-28T02:54:29;1.20;;;1.20;;
33152;SDS011;19509;43.862;26.176;2023-02-28T02:57:00;1.60;;;1.60;;
33152;SDS011;19509;43.862;26.176;2023-02-28T02:59:33;1.77;;;1.77;;
33152;SDS011;19509;43.862;26.176;2023-02-28T03:02:03;1.30;;;1.30;;
33152;SDS011;19509;43.862;26.176;2023-02-28T03:04:32;1.40;;;1.40;;
33152;SDS011;19509;43.862;26.176;2023-02-28T03:07:02;1.50;;;1.50;;
33152;SDS011;19509;43.862;26.176;2023-02-28T03:09:27;1.60;;;1.60;;
33152;SDS011;19509;43.862;26.176;2023-02-28T03:11:54;1.70;;;1.70;;
33152;SDS011;19509;43.862;26.176;2023-02-28T03:14:33;2.10;;;2.10;;
33152;SDS011;19509;43.862;26.176;2023-02-28T03:22:45;1.40;;;1.40;;
33152;SDS011;19509;43.862;26.176;2023-02-28T03:32:38;1.87;;;1.87;;
33152;SDS011;19509;43.862;26.176;2023-02-28T03:35:12;1.53;;;1.53;;
33152;SDS011;19509;43.862;26.176;2023-02-28T03:37:46;2.30;;;2.30;;
33152;SDS011;19509;43.862;26.176;2023-02-28T03:40:17;2.23;;;2.23;;
33152;SDS011;19509;43.862;26.176;2023-02-28T03:42:48;2.07;;;2.07;;
33152;SDS011;19509;43.862;26.176;2023-02-28T03:45:18;2.03;;;2.03;;
33152;SDS011;19509;43.862;26.176;2023-02-28T03:50:24;2.10;;;2.10;;
33152;SDS011;19509;43.862;26.176;2023-02-28T03:56:09;2.17;;;2.17;;
33152;SDS011;19509;43.862;26.176;2023-02-28T03:58:43;2.13;;;2.13;;
33152;SDS011;19509;43.862;26.176;2023-02-28T04:01:34;2.07;;;2.07;;
33152;SDS011;19509;43.862;26.176;2023-02-28T04:04:03;2.30;;;2.30;;
33152;SDS011;19509;43.862;26.176;2023-02-28T04:06:30;2.30;;;2.30;;
33152;SDS011;19509;43.862;26.176;2023-02-28T04:08:57;1.70;;;1.70;;
33152;SDS011;19509;43.862;26.176;2023-02-28T04:11:33;1.97;;;1.97;;
33152;SDS011;19509;43.862;26.176;2023-02-28T04:14:01;1.80;;;1.80;;
33152;SDS011;19509;43.862;26.176;2023-02-28T04:16:28;1.80;;;1.80;;
33152;SDS011;19509;43.862;26.176;2023-02-28T04:18:54;2.13;;;2.13;;
33152;SDS011;19509;43.862;26.176;2023-02-28T04:21:27;2.10;;;2.10;;
33152;SDS011;19509;43.862;26.176;2023-02-28T04:23:58;1.83;;;1.83;;
33152;SDS011;19509;43.862;26.176;2023-02-28T04:26:27;1.90;;;1.90;;
33152;SDS011;19509;43.862;26.176;2023-02-28T04:29:00;1.67;;;1.67;;
33152;SDS011;19509;43.862;26.176;2023-02-28T04:31:27;1.83;;;1.83;;
33152;SDS011;19509;43.862;26.176;2023-02-28T04:33:52;1.70;;;1.70;;
33152;SDS011;19509;43.862;26.176;2023-02-28T04:36:18;2.50;;;2.50;;
33152;SDS011;19509;43.862;26.176;2023-02-28T04:38:44;2.30;;;2.30;;
33152;SDS011;19509;43.862;26.176;2023-02-28T04:41:10;2.53;;;2.53;;
33152;SDS011;19509;43.862;26.176;2023-02-28T04:43:37;2.37;;;2.37;;
33152;SDS011;19509;43.862;26.176;2023-02-28T04:46:04;2.53;;;2.53;;
33152;SDS011;19509;43.862;26.176;2023-02-28T04:48:31;2.33;;;2.33;;
33152;SDS011;19509;43.862;26.176;2023-02-28T04:51:02;2.20;;;2.20;;
33152;SDS011;19509;43.862;26.176;2023-02-28T04:53:39;1.80;;;1.80;;
33152;SDS011;19509;43.862;26.176;2023-02-28T04:56:06;1.93;;;1.93;;
33152;SDS011;19509;43.862;26.176;2023-02-28T04:58:33;2.60;;;2.60;;
33152;SDS011;19509;43.862;26.176;2023-02-28T05:01:06;2.70;;;2.70;;
33152;SDS011;19509;43.862;26.176;2023-02-28T05:03:42;1.90;;;1.90;;
33152;SDS011;19509;43.862;26.176;2023-02-28T05:06:08;2.40;;;2.40;;
33152;SDS011;19509;43.862;26.176;2023-02-28T05:08:35;2.47;;;2.47;;
33152;SDS011;19509;43.862;26.176;2023-02-28T05:11:00;2.10;;;2.10;;
33152;SDS011;19509;43.862;26.176;2023-02-28T05:13:27;1.80;;;1.80;;
33152;SDS011;19509;43.862;26.176;2023-02-28T05:15:53;2.27;;;2.27;;
33152;SDS011;19509;43.862;26.176;2023-02-28T05:18:18;2.10;;;2.10;;
33152;SDS011;19509;43.862;26.176;2023-02-28T05:20:44;1.90;;;1.90;;
33152;SDS011;19509;43.862;26.176;2023-02-28T05:23:13;2.90;;;2.90;;
33152;SDS011;19509;43.862;26.176;2023-02-28T05:25:39;2.17;;;2.17;;
33152;SDS011;19509;43.862;26.176;2023-02-28T05:28:05;2.70;;;2.70;;
33152;SDS011;19509;43.862;26.176;2023-02-28T05:30:31;1.60;;;1.60;;
33152;SDS011;19509;43.862;26.176;2023-02-28T05:32:57;2.60;;;2.60;;
33152;SDS011;19509;43.862;26.176;2023-02-28T05:35:24;2.50;;;2.50;;
33152;SDS011;19509;43.862;26.176;2023-02-28T05:37:49;1.90;;;1.90;;
33152;SDS011;19509;43.862;26.176;2023-02-28T05:40:15;1.90;;;1.90;;
33152;SDS011;19509;43.862;26.176;2023-02-28T05:42:42;2.40;;;2.40;;
33152;SDS011;19509;43.862;26.176;2023-02-28T05:45:08;2.40;;;2.40;;
33152;SDS011;19509;43.862;26.176;2023-02-28T05:47:34;2.20;;;2.20;;
33152;SDS011;19509;43.862;26.176;2023-02-28T05:49:59;2.37;;;2.27;;
33152;SDS011;19509;43.862;26.176;2023-02-28T05:52:26;2.20;;;2.20;;
33152;SDS011;19509;43.862;26.176;2023-02-28T05:54:52;2.60;;;2.60;;
33152;SDS011;19509;43.862;26.176;2023-02-28T05:57:17;2.30;;;2.30;;
33152;SDS011;19509;43.862;26.176;2023-02-28T05:59:42;2.47;;;2.47;;
33152;SDS011;19509;43.862;26.176;2023-02-28T06:02:10;2.00;;;2.00;;
33152;SDS011;19509;43.862;26.176;2023-02-28T06:04:37;1.93;;;1.93;;
33152;SDS011;19509;43.862;26.176;2023-02-28T06:07:03;2.47;;;2.47;;
33152;SDS011;19509;43.862;26.176;2023-02-28T06:09:28;2.40;;;2.40;;
33152;SDS011;19509;43.862;26.176;2023-02-28T06:11:54;2.00;;;2.00;;
33152;SDS011;19509;43.862;26.176;2023-02-28T06:14:22;2.50;;;2.50;;
33152;SDS011;19509;43.862;26.176;2023-02-28T06:16:47;2.23;;;2.23;;
33152;SDS011;19509;43.862;26.176;2023-02-28T06:19:13;1.30;;;1.30;;
33152;SDS011;19509;43.862;26.176;2023-02-28T06:21:40;1.90;;;1.90;;
33152;SDS011;19509;43.862;26.176;2023-02-28T06:24:05;1.33;;;1.33;;
33152;SDS011;19509;43.862;26.176;2023-02-28T06:26:31;2.33;;;2.33;;
33152;SDS011;19509;43.862;26.176;2023-02-28T06:28:58;1.63;;;1.63;;
33152;SDS011;19509;43.862;26.176;2023-02-28T06:31:25;1.90;;;1.90;;
33152;SDS011;19509;43.862;26.176;2023-02-28T06:33:51;2.20;;;2.20;;
33152;SDS011;19509;43.862;26.176;2023-02-28T06:36:17;2.10;;;2.10;;
33152;SDS011;19509;43.862;26.176;2023-02-28T06:38:43;1.90;;;1.90;;
33152;SDS011;19509;43.862;26.176;2023-02-28T06:41:09;2.17;;;2.17;;
33152;SDS011;19509;43.862;26.176;2023-02-28T06:43:37;2.23;;;2.23;;
33152;SDS011;19509;43.862;26.176;2023-02-28T06:46:06;2.17;;;2.17;;
33152;SDS011;19509;43.862;26.176;2023-02-28T06:48:33;1.67;;;1.67;;
33152;SDS011;19509;43.862;26.176;2023-02-28T06:51:06;2.20;;;2.20;;
33152;SDS011;19509;43.862;26.176;2023-02-28T06:53:34;2.47;;;2.37;;
33152;SDS011;19509;43.862;26.176;2023-02-28T06:56:04;2.43;;;2.43;;
33152;SDS011;19509;43.862;26.176;2023-02-28T06:58:31;2.63;;;2.60;;
33152;SDS011;19509;43.862;26.176;2023-02-28T07:00:56;2.73;;;2.73;;
33152;SDS011;19509;43.862;26.176;2023-02-28T07:03:22;2.50;;;2.50;;
33152;SDS011;19509;43.862;26.176;2023-02-28T07:05:48;2.63;;;2.63;;
33152;SDS011;19509;43.862;26.176;2023-02-28T07:08:13;2.23;;;2.23;;
33152;SDS011;19509;43.862;26.176;2023-02-28T07:10:39;1.97;;;1.97;;
33152;SDS011;19509;43.862;26.176;2023-02-28T07:13:06;2.40;;;2.40;;
33152;SDS011;19509;43.862;26.176;2023-02-28T07:15:33;2.30;;;2.30;;
33152;SDS011;19509;43.862;26.176;2023-02-28T07:17:59;2.30;;;2.30;;
33152;SDS011;19509;43.862;26.176;2023-02-28T07:20:25;2.30;;;2.30;;
33152;SDS011;19509;43.862;26.176;2023-02-28T07:22:50;3.10;;;3.00;;
33152;SDS011;19509;43.862;26.176;2023-02-28T07:25:30;2.00;;;2.00;;
33152;SDS011;19509;43.862;26.176;2023-02-28T07:27:56;2.80;;;2.60;;
33152;SDS011;19509;43.862;26.176;2023-02-28T07:30:21;2.73;;;2.73;;
33152;SDS011;19509;43.862;26.176;2023-02-28T07:32:47;2.33;;;2.33;;
33152;SDS011;19509;43.862;26.176;2023-02-28T07:35:13;2.47;;;2.47;;
33152;SDS011;19509;43.862;26.176;2023-02-28T07:37:40;2.67;;;2.67;;
33152;SDS011;19509;43.862;26.176;2023-02-28T07:40:08;2.53;;;2.53;;
33152;SDS011;19509;43.862;26.176;2023-02-28T07:42:38;2.73;;;2.70;;
33152;SDS011;19509;43.862;26.176;2023-02-28T07:45:08;2.30;;;2.30;;
33152;SDS011;19509;43.862;26.176;2023-02-28T07:47:36;2.20;;;2.20;;
33152;SDS011;19509;43.862;26.176;2023-02-28T07:50:03;2.00;;;2.00;;
33152;SDS011;19509;43.862;26.176;2023-02-28T07:52:28;2.20;;;2.20;;
33152;SDS011;19509;43.862;26.176;2023-02-28T07:54:54;2.30;;;2.30;;
33152;SDS011;19509;43.862;26.176;2023-02-28T07:57:19;2.30;;;2.30;;
33152;SDS011;19509;43.862;26.176;2023-02-28T07:59:45;2.60;;;2.60;;
33152;SDS011;19509;43.862;26.176;2023-02-28T08:02:14;2.47;;;2.47;;
33152;SDS011;19509;43.862;26.176;2023-02-28T08:04:40;2.50;;;2.50;;
33152;SDS011;19509;43.862;26.176;2023-02-28T08:07:06;2.60;;;2.50;;
33152;SDS011;19509;43.862;26.176;2023-02-28T08:09:32;1.97;;;1.97;;
33152;SDS011;19509;43.862;26.176;2023-02-28T08:11:57;2.40;;;2.40;;
33152;SDS011;19509;43.862;26.176;2023-02-28T08:14:23;2.30;;;2.30;;
33152;SDS011;19509;43.862;26.176;2023-02-28T08:16:49;2.50;;;2.50;;
33152;SDS011;19509;43.862;26.176;2023-02-28T08:19:14;2.77;;;2.77;;
33152;SDS011;19509;43.862;26.176;2023-02-28T08:21:40;2.70;;;2.70;;
33152;SDS011;19509;43.862;26.176;2023-02-28T08:24:05;2.00;;;2.00;;
33152;SDS011;19509;43.862;26.176;2023-02-28T08:26:32;2.27;;;2.27;;
33152;SDS011;19509;43.862;26.176;2023-02-28T08:28:57;2.23;;;2.23;;
33152;SDS011;19509;43.862;26.176;2023-02-28T08:31:23;1.90;;;1.90;;
33152;SDS011;19509;43.862;26.176;2023-02-28T08:33:48;2.00;;;2.00;;
33152;SDS011;19509;43.862;26.176;2023-02-28T08:36:17;2.30;;;2.30;;
33152;SDS011;19509;43.862;26.176;2023-02-28T08:38:42;1.90;;;1.90;;
33152;SDS011;19509;43.862;26.176;2023-02-28T08:41:09;1.90;;;1.90;;
33152;SDS011;19509;43.862;26.176;2023-02-28T08:43:36;2.30;;;2.30;;
33152;SDS011;19509;43.862;26.176;2023-02-28T08:46:02;1.73;;;1.73;;
33152;SDS011;19509;43.862;26.176;2023-02-28T08:48:29;1.63;;;1.63;;
33152;SDS011;19509;43.862;26.176;2023-02-28T08:53:52;2.10;;;2.10;;
33152;SDS011;19509;43.862;26.176;2023-02-28T08:56:22;1.93;;;1.93;;
33152;SDS011;19509;43.862;26.176;2023-02-28T08:58:49;2.60;;;2.60;;
33152;SDS011;19509;43.862;26.176;2023-02-28T09:01:16;2.10;;;2.10;;
33152;SDS011;19509;43.862;26.176;2023-02-28T09:03:47;2.00;;;2.00;;
33152;SDS011;19509;43.862;26.176;2023-02-28T09:06:15;1.60;;;1.60;;
33152;SDS011;19509;43.862;26.176;2023-02-28T09:08:42;2.40;;;2.40;;
33152;SDS011;19509;43.862;26.176;2023-02-28T09:11:08;1.80;;;1.80;;
33152;SDS011;19509;43.862;26.176;2023-02-28T09:13:34;2.00;;;2.00;;
33152;SDS011;19509;43.862;26.176;2023-02-28T09:16:01;2.40;;;2.40;;
33152;SDS011;19509;43.862;26.176;2023-02-28T09:18:28;2.23;;;2.23;;
33152;SDS011;19509;43.862;26.176;2023-02-28T09:20:54;2.43;;;2.43;;
33152;SDS011;19509;43.862;26.176;2023-02-28T09:23:20;2.50;;;2.50;;
33152;SDS011;19509;43.862;26.176;2023-02-28T09:25:47;2.23;;;2.23;;
33152;SDS011;19509;43.862;26.176;2023-02-28T09:28:14;1.57;;;1.57;;
33152;SDS011;19509;43.862;26.176;2023-02-28T09:30:41;2.10;;;2.10;;
33152;SDS011;19509;43.862;26.176;2023-02-28T09:33:06;2.23;;;2.23;;
33152;SDS011;19509;43.862;26.176;2023-02-28T09:35:32;1.83;;;1.83;;
33152;SDS011;19509;43.862;26.176;2023-02-28T09:37:58;2.23;;;2.23;;
33152;SDS011;19509;43.862;26.176;2023-02-28T09:40:24;1.97;;;1.97;;
33152;SDS011;19509;43.862;26.176;2023-02-28T09:42:51;2.20;;;2.20;;
33152;SDS011;19509;43.862;26.176;2023-02-28T09:45:30;2.10;;;2.10;;
33152;SDS011;19509;43.862;26.176;2023-02-28T09:48:21;2.03;;;2.03;;
33152;SDS011;19509;43.862;26.176;2023-02-28T09:51:00;2.30;;;2.30;;
33152;SDS011;19509;43.862;26.176;2023-02-28T09:53:29;2.10;;;2.10;;
33152;SDS011;19509;43.862;26.176;2023-02-28T09:55:59;1.80;;;1.80;;
33152;SDS011;19509;43.862;26.176;2023-02-28T10:01:09;1.70;;;1.70;;
33152;SDS011;19509;43.862;26.176;2023-02-28T10:03:40;2.37;;;2.37;;
33152;SDS011;19509;43.862;26.176;2023-02-28T10:06:18;2.20;;;2.20;;
33152;SDS011;19509;43.862;26.176;2023-02-28T10:09:04;1.63;;;1.63;;
33152;SDS011;19509;43.862;26.176;2023-02-28T10:11:38;1.47;;;1.47;;
33152;SDS011;19509;43.862;26.176;2023-02-28T10:14:09;2.00;;;2.00;;
33152;SDS011;19509;43.862;26.176;2023-02-28T10:16:43;1.77;;;1.77;;
33152;SDS011;19509;43.862;26.176;2023-02-28T10:19:27;2.30;;;2.30;;
33152;SDS011;19509;43.862;26.176;2023-02-28T10:22:05;2.00;;;2.00;;
33152;SDS011;19509;43.862;26.176;2023-02-28T10:24:41;1.80;;;1.80;;
33152;SDS011;19509;43.862;26.176;2023-02-28T10:27:15;2.27;;;2.27;;
33152;SDS011;19509;43.862;26.176;2023-02-28T10:29:44;1.80;;;1.80;;
33152;SDS011;19509;43.862;26.176;2023-02-28T10:32:15;2.00;;;2.00;;
33152;SDS011;19509;43.862;26.176;2023-02-28T10:34:43;2.20;;;2.20;;
33152;SDS011;19509;43.862;26.176;2023-02-28T10:37:09;2.70;;;2.60;;
33152;SDS011;19509;43.862;26.176;2023-02-28T10:39:45;2.80;;;2.80;;
33152;SDS011;19509;43.862;26.176;2023-02-28T10:42:19;2.40;;;2.40;;
33152;SDS011;19509;43.862;26.176;2023-02-28T10:50:34;2.77;;;2.67;;
33152;SDS011;19509;43.862;26.176;2023-02-28T10:55:55;2.83;;;2.73;;
33152;SDS011;19509;43.862;26.176;2023-02-28T11:01:18;2.33;;;2.23;;
33152;SDS011;19509;43.862;26.176;2023-02-28T11:03:46;2.10;;;2.10;;
33152;SDS011;19509;43.862;26.176;2023-02-28T11:06:20;2.00;;;2.00;;
33152;SDS011;19509;43.862;26.176;2023-02-28T11:11:22;2.60;;;2.60;;
33152;SDS011;19509;43.862;26.176;2023-02-28T11:13:54;2.57;;;2.57;;
33152;SDS011;19509;43.862;26.176;2023-02-28T11:16:22;2.27;;;2.27;;
33152;SDS011;19509;43.862;26.176;2023-02-28T11:18:58;2.00;;;2.00;;
33152;SDS011;19509;43.862;26.176;2023-02-28T11:21:31;2.70;;;2.70;;
33152;SDS011;19509;43.862;26.176;2023-02-28T11:26:49;2.40;;;2.40;;
33152;SDS011;19509;43.862;26.176;2023-02-28T11:31:49;2.40;;;2.40;;
33152;SDS011;19509;43.862;26.176;2023-02-28T11:34:37;2.53;;;2.53;;
33152;SDS011;19509;43.862;26.176;2023-02-28T11:37:05;2.60;;;2.60;;
33152;SDS011;19509;43.862;26.176;2023-02-28T11:39:37;2.50;;;2.40;;
33152;SDS011;19509;43.862;26.176;2023-02-28T11:47:33;1.87;;;1.87;;
33152;SDS011;19509;43.862;26.176;2023-02-28T12:17:02;2.60;;;2.60;;
33152;SDS011;19509;43.862;26.176;2023-02-28T12:22:21;1.80;;;1.80;;
33152;SDS011;19509;43.862;26.176;2023-02-28T12:27:27;2.70;;;2.70;;
33152;SDS011;19509;43.862;26.176;2023-02-28T12:30:13;2.90;;;2.83;;
33152;SDS011;19509;43.862;26.176;2023-02-28T12:32:42;2.13;;;2.13;;
33152;SDS011;19509;43.862;26.176;2023-02-28T12:35:16;2.30;;;2.30;;
33152;SDS011;19509;43.862;26.176;2023-02-28T12:37:49;2.40;;;2.40;;
33152;SDS011;19509;43.862;26.176;2023-02-28T12:40:20;2.27;;;2.27;;
33152;SDS011;19509;43.862;26.176;2023-02-28T12:42:52;2.70;;;2.60;;
33152;SDS011;19509;43.862;26.176;2023-02-28T12:45:36;2.47;;;2.47;;
33152;SDS011;19509;43.862;26.176;2023-02-28T12:48:08;2.70;;;2.70;;
33152;SDS011;19509;43.862;26.176;2023-02-28T12:50:38;2.50;;;2.50;;
33152;SDS011;19509;43.862;26.176;2023-02-28T12:53:21;2.13;;;2.13;;
33152;SDS011;19509;43.862;26.176;2023-02-28T12:55:50;2.73;;;2.73;;
33152;SDS011;19509;43.862;26.176;2023-02-28T13:09:16;2.43;;;2.43;;
33152;SDS011;19509;43.862;26.176;2023-02-28T13:11:46;2.40;;;2.40;;
33152;SDS011;19509;43.862;26.176;2023-02-28T13:14:59;2.70;;;2.70;;
33152;SDS011;19509;43.862;26.176;2023-02-28T13:19:38;2.33;;;2.33;;
33152;SDS011;19509;43.862;26.176;2023-02-28T13:23:04;2.60;;;2.60;;
33152;SDS011;19509;43.862;26.176;2023-02-28T13:28:10;2.63;;;2.60;;
33152;SDS011;19509;43.862;26.176;2023-02-28T13:33:28;2.97;;;2.87;;
33152;SDS011;19509;43.862;26.176;2023-02-28T13:39:15;2.40;;;2.40;;
33152;SDS011;19509;43.862;26.176;2023-02-28T13:41:46;2.40;;;2.40;;
33152;SDS011;19509;43.862;26.176;2023-02-28T13:49:18;2.30;;;2.30;;
33152;SDS011;19509;43.862;26.176;2023-02-28T13:51:45;2.47;;;2.47;;
33152;SDS011;19509;43.862;26.176;2023-02-28T13:56:57;2.60;;;2.60;;
33152;SDS011;19509;43.862;26.176;2023-02-28T13:59:38;2.10;;;2.10;;
33152;SDS011;19509;43.862;26.176;2023-02-28T14:07:33;1.87;;;1.87;;
33152;SDS011;19509;43.862;26.176;2023-02-28T14:10:15;2.00;;;2.00;;
33152;SDS011;19509;43.862;26.176;2023-02-28T14:12:52;2.00;;;2.00;;
33152;SDS011;19509;43.862;26.176;2023-02-28T14:15:38;2.17;;;2.17;;
33152;SDS011;19509;43.862;26.176;2023-02-28T14:18:51;2.00;;;2.00;;
33152;SDS011;19509;43.862;26.176;2023-02-28T14:21:02;2.10;;;2.10;;
33152;SDS011;19509;43.862;26.176;2023-02-28T14:35:05;1.97;;;1.97;;
33152;SDS011;19509;43.862;26.176;2023-02-28T14:37:45;2.10;;;2.10;;
33152;SDS011;19509;43.862;26.176;2023-02-28T14:40:19;2.00;;;2.00;;
33152;SDS011;19509;43.862;26.176;2023-02-28T14:43:00;2.10;;;2.10;;
33152;SDS011;19509;43.862;26.176;2023-02-28T14:45:29;1.80;;;1.80;;
33152;SDS011;19509;43.862;26.176;2023-02-28T14:47:57;1.90;;;1.90;;
33152;SDS011;19509;43.862;26.176;2023-02-28T14:50:26;2.20;;;2.20;;
33152;SDS011;19509;43.862;26.176;2023-02-28T14:52:55;1.80;;;1.80;;
33152;SDS011;19509;43.862;26.176;2023-02-28T14:55:24;2.00;;;2.00;;
33152;SDS011;19509;43.862;26.176;2023-02-28T14:57:57;2.30;;;2.30;;
33152;SDS011;19509;43.862;26.176;2023-02-28T15:00:28;2.13;;;2.13;;
33152;SDS011;19509;43.862;26.176;2023-02-28T15:02:55;1.83;;;1.83;;
33152;SDS011;19509;43.862;26.176;2023-02-28T15:05:32;2.30;;;2.30;;
33152;SDS011;19509;43.862;26.176;2023-02-28T15:08:06;1.73;;;1.73;;
33152;SDS011;19509;43.862;26.176;2023-02-28T15:10:38;2.00;;;2.00;;
33152;SDS011;19509;43.862;26.176;2023-02-28T15:13:09;2.00;;;2.00;;
33152;SDS011;19509;43.862;26.176;2023-02-28T15:18:16;1.90;;;1.90;;
33152;SDS011;19509;43.862;26.176;2023-02-28T15:20:46;2.30;;;2.30;;
33152;SDS011;19509;43.862;26.176;2023-02-28T15:23:12;2.10;;;2.10;;
33152;SDS011;19509;43.862;26.176;2023-02-28T15:25:38;2.07;;;2.07;;
33152;SDS011;19509;43.862;26.176;2023-02-28T15:28:09;1.90;;;1.90;;
33152;SDS011;19509;43.862;26.176;2023-02-28T15:30:52;2.27;;;2.27;;
33152;SDS011;19509;43.862;26.176;2023-02-28T15:33:26;2.40;;;2.40;;
33152;SDS011;19509;43.862;26.176;2023-02-28T15:36:06;2.00;;;2.00;;
33152;SDS011;19509;43.862;26.176;2023-02-28T15:38:40;2.27;;;2.27;;
33152;SDS011;19509;43.862;26.176;2023-02-28T15:41:20;2.50;;;2.50;;
33152;SDS011;19509;43.862;26.176;2023-02-28T15:43:48;2.20;;;2.20;;
33152;SDS011;19509;43.862;26.176;2023-02-28T15:46:14;2.40;;;2.40;;
33152;SDS011;19509;43.862;26.176;2023-02-28T15:48:58;2.70;;;2.70;;
33152;SDS011;19509;43.862;26.176;2023-02-28T15:51:24;2.50;;;2.50;;
33152;SDS011;19509;43.862;26.176;2023-02-28T15:54:07;2.57;;;2.47;;
33152;SDS011;19509;43.862;26.176;2023-02-28T15:56:44;2.13;;;2.13;;
33152;SDS011;19509;43.862;26.176;2023-02-28T15:59:24;2.80;;;2.80;;
33152;SDS011;19509;43.862;26.176;2023-02-28T16:02:11;2.80;;;2.80;;
33152;SDS011;19509;43.862;26.176;2023-02-28T16:05:46;2.40;;;2.40;;
33152;SDS011;19509;43.862;26.176;2023-02-28T16:07:55;2.30;;;2.30;;
33152;SDS011;19509;43.862;26.176;2023-02-28T16:10:23;2.43;;;2.43;;
33152;SDS011;19509;43.862;26.176;2023-02-28T16:12:52;2.20;;;2.20;;
33152;SDS011;19509;43.862;26.176;2023-02-28T16:15:26;2.30;;;2.30;;
33152;SDS011;19509;43.862;26.176;2023-02-28T16:17:53;2.63;;;2.63;;
33152;SDS011;19509;43.862;26.176;2023-02-28T16:20:24;2.60;;;2.60;;
33152;SDS011;19509;43.862;26.176;2023-02-28T16:22:52;2.60;;;2.60;;
33152;SDS011;19509;43.862;26.176;2023-02-28T16:25:18;2.87;;;2.87;;
33152;SDS011;19509;43.862;26.176;2023-02-28T16:27:48;2.90;;;2.90;;
33152;SDS011;19509;43.862;26.176;2023-02-28T16:30:23;2.80;;;2.80;;
33152;SDS011;19509;43.862;26.176;2023-02-28T16:32:51;3.00;;;2.90;;
33152;SDS011;19509;43.862;26.176;2023-02-28T16:35:19;3.10;;;3.10;;
33152;SDS011;19509;43.862;26.176;2023-02-28T16:37:44;3.30;;;3.20;;
33152;SDS011;19509;43.862;26.176;2023-02-28T16:40:14;2.90;;;2.90;;
33152;SDS011;19509;43.862;26.176;2023-02-28T16:42:41;2.77;;;2.77;;
33152;SDS011;19509;43.862;26.176;2023-02-28T16:45:21;3.00;;;3.00;;
33152;SDS011;19509;43.862;26.176;2023-02-28T16:47:48;3.50;;;3.50;;
33152;SDS011;19509;43.862;26.176;2023-02-28T16:52:47;3.17;;;3.10;;
33152;SDS011;19509;43.862;26.176;2023-02-28T16:55:14;2.97;;;2.97;;
33152;SDS011;19509;43.862;26.176;2023-02-28T16:57:40;3.23;;;3.23;;
33152;SDS011;19509;43.862;26.176;2023-02-28T17:00:06;3.50;;;3.40;;
33152;SDS011;19509;43.862;26.176;2023-02-28T17:02:33;3.23;;;3.20;;
33152;SDS011;19509;43.862;26.176;2023-02-28T17:04:59;3.53;;;3.43;;
33152;SDS011;19509;43.862;26.176;2023-02-28T17:07:25;3.20;;;3.20;;
33152;SDS011;19509;43.862;26.176;2023-02-28T17:09:50;3.57;;;3.47;;
33152;SDS011;19509;43.862;26.176;2023-02-28T17:12:16;3.40;;;3.30;;
33152;SDS011;19509;43.862;26.176;2023-02-28T17:14:41;2.90;;;2.90;;
33152;SDS011;19509;43.862;26.176;2023-02-28T17:17:07;3.53;;;3.43;;
33152;SDS011;19509;43.862;26.176;2023-02-28T17:19:35;3.17;;;3.13;;
33152;SDS011;19509;43.862;26.176;2023-02-28T17:22:01;3.93;;;3.83;;
33152;SDS011;19509;43.862;26.176;2023-02-28T17:24:28;3.30;;;3.20;;
33152;SDS011;19509;43.862;26.176;2023-02-28T17:26:53;3.60;;;3.50;;
33152;SDS011;19509;43.862;26.176;2023-02-28T17:29:20;3.40;;;3.30;;